Time;durP1;ratioP1;P1;durP2;ratioP2;P2;SDS_P1;SDS_P2;PMS_P1;PMS_P2;Temp;Humidity;BMP_temperature;BMP_pressure;BME280_temperature;BME280_humidity;BME280_pressure;Samples;Min_cycle;Max_cycle;Signal;HPM_P1;HPM_P2
2022/10/17 00:01:33;;;;;;;11.15;6.72;;;;;;;;;;4944552;29;20047;-74
2022/10/17 00:04:19;;;;;;;11.60;7.57;;;;;;;;;;4938942;29;20043;-75
2022/10/17 00:07:04;;;;;;;12.30;7.90;;;;;;;;;;4939128;29;20047;-74
2022/10/17 00:09:50;;;;;;;13.07;8.55;;;;;;;;;;4938875;29;20040;-76
2022/10/17 00:12:36;;;;;;;12.63;7.63;;;;;;;;;;4938860;29;20047;-75
2022/10/17 00:15:22;;;;;;;15.90;7.32;;;;;;;;;;4938806;29;20039;-76
2022/10/17 00:18:07;;;;;;;13.02;8.45;;;;;;;;;;4945010;29;20486;-76
2022/10/17 00:20:52;;;;;;;13.35;7.57;;;;;;;;;;4938596;29;20048;-76
2022/10/17 00:23:38;;;;;;;15.68;8.38;;;;;;;;;;4938623;29;20056;-76
2022/10/17 00:26:24;;;;;;;12.20;7.70;;;;;;;;;;4938551;29;20485;-75
2022/10/17 00:29:09;;;;;;;13.13;8.35;;;;;;;;;;4944076;29;20043;-75
2022/10/17 00:31:55;;;;;;;14.20;9.00;;;;;;;;;;4943531;29;20043;-75
2022/10/17 00:34:40;;;;;;;12.18;7.63;;;;;;;;;;4938304;29;20043;-75
2022/10/17 00:37:27;;;;;;;18.48;10.00;;;;;;;;;;4938229;29;20398;-75
2022/10/17 00:40:12;;;;;;;19.42;9.25;;;;;;;;;;4938036;29;20036;-76
2022/10/17 00:42:57;;;;;;;13.02;8.30;;;;;;;;;;4943894;29;20398;-75
2022/10/17 00:45:42;;;;;;;13.30;8.65;;;;;;;;;;4943521;29;20500;-75
2022/10/17 00:48:30;;;;;;;16.92;10.65;;;;;;;;;;4943892;29;20043;-75
2022/10/17 00:51:17;;;;;;;22.00;13.57;;;;;;;;;;4938111;29;20056;-77
2022/10/17 00:54:03;;;;;;;24.50;10.70;;;;;;;;;;4942516;29;20059;-75
2022/10/17 00:56:50;;;;;;;21.40;11.07;;;;;;;;;;4937072;29;20055;-76
2022/10/17 00:59:38;;;;;;;15.80;10.20;;;;;;;;;;4936842;29;20035;-75
2022/10/17 01:02:24;;;;;;;16.77;9.85;;;;;;;;;;4937327;29;20466;-75
2022/10/17 01:05:10;;;;;;;13.07;7.40;;;;;;;;;;4943417;29;20047;-75
2022/10/17 01:07:56;;;;;;;18.25;7.05;;;;;;;;;;4946071;29;20047;-76
2022/10/17 01:11:00;;;;;;;9.07;6.82;;;;;;;;;;4938364;29;20044;-75
2022/10/17 01:14:09;;;;;;;12.95;7.53;;;;;;;;;;4936749;29;20040;-76
2022/10/17 01:17:16;;;;;;;13.30;7.20;;;;;;;;;;4942190;29;20043;-76
2022/10/17 01:20:17;;;;;;;18.85;9.60;;;;;;;;;;4936155;29;20047;-76
2022/10/17 01:23:27;;;;;;;14.48;8.90;;;;;;;;;;4942373;29;20421;-76
2022/10/17 01:26:37;;;;;;;15.60;8.48;;;;;;;;;;4936647;29;20044;-75
2022/10/17 01:29:46;;;;;;;14.77;8.15;;;;;;;;;;4934815;29;20064;-76
2022/10/17 01:32:39;;;;;;;12.57;7.88;;;;;;;;;;4941853;29;20051;-76
2022/10/17 01:35:41;;;;;;;14.18;8.23;;;;;;;;;;4941884;29;20047;-75
2022/10/17 01:38:33;;;;;;;14.18;9.15;;;;;;;;;;4936485;29;20048;-76
2022/10/17 01:41:24;;;;;;;16.92;9.70;;;;;;;;;;4936306;29;20052;-75
2022/10/17 01:44:21;;;;;;;18.48;10.05;;;;;;;;;;4942038;29;20044;-75
2022/10/17 01:47:12;;;;;;;11.60;7.00;;;;;;;;;;4941638;29;20039;-75
2022/10/17 01:50:05;;;;;;;10.02;6.30;;;;;;;;;;4932837;29;162141;-76
2022/10/17 01:52:55;;;;;;;9.23;6.50;;;;;;;;;;4926784;29;20489;-76
2022/10/17 01:55:44;;;;;;;11.27;6.80;;;;;;;;;;4936885;29;20048;-75
2022/10/17 01:58:40;;;;;;;12.13;6.97;;;;;;;;;;4942329;29;20047;-76
2022/10/17 02:01:28;;;;;;;10.10;7.00;;;;;;;;;;4935059;29;20055;-76
2022/10/17 02:04:15;;;;;;;14.13;7.40;;;;;;;;;;4937044;29;20059;-76
2022/10/17 02:07:08;;;;;;;15.07;6.78;;;;;;;;;;4942169;29;20044;-76
2022/10/17 02:09:53;;;;;;;11.57;7.30;;;;;;;;;;4941995;29;20044;-75
2022/10/17 02:12:51;;;;;;;12.25;7.28;;;;;;;;;;4942573;29;20043;-75
2022/10/17 02:15:53;;;;;;;12.77;7.30;;;;;;;;;;4941841;29;20048;-75
2022/10/17 02:19:00;;;;;;;12.63;7.47;;;;;;;;;;4943160;29;20441;-75
2022/10/17 02:21:51;;;;;;;16.48;8.48;;;;;;;;;;4942108;29;20055;-76
2022/10/17 02:24:50;;;;;;;15.25;8.27;;;;;;;;;;4942099;29;20498;-75
2022/10/17 02:28:12;;;;;;;17.92;9.57;;;;;;;;;;4936802;29;20044;-75
2022/10/17 02:31:01;;;;;;;21.63;11.93;;;;;;;;;;4917862;29;20047;-75
2022/10/17 02:33:55;;;;;;;17.70;10.20;;;;;;;;;;4936698;29;20402;-75
2022/10/17 02:36:45;;;;;;;20.00;10.60;;;;;;;;;;4940956;29;20397;-75
2022/10/17 02:39:33;;;;;;;15.98;8.80;;;;;;;;;;4941693;29;20501;-76
2022/10/17 02:42:22;;;;;;;15.85;9.35;;;;;;;;;;4941704;29;20036;-75
2022/10/17 02:45:08;;;;;;;14.20;8.75;;;;;;;;;;4941757;29;20048;-76
2022/10/17 02:48:02;;;;;;;12.75;8.52;;;;;;;;;;4941760;29;20044;-76
2022/10/17 02:50:53;;;;;;;16.73;9.00;;;;;;;;;;4938336;29;20497;-75
2022/10/17 02:53:50;;;;;;;14.88;8.82;;;;;;;;;;4936430;29;20040;-76
2022/10/17 02:56:42;;;;;;;15.63;8.80;;;;;;;;;;4935283;29;20044;-77
2022/10/17 02:59:30;;;;;;;14.98;8.65;;;;;;;;;;4936071;29;20048;-75
2022/10/17 03:02:16;;;;;;;16.08;9.23;;;;;;;;;;4941603;29;20043;-76
2022/10/17 03:05:03;;;;;;;14.77;7.82;;;;;;;;;;4941437;29;20047;-75
2022/10/17 03:07:49;;;;;;;11.05;7.32;;;;;;;;;;4936448;29;20052;-75
2022/10/17 03:10:34;;;;;;;14.18;7.93;;;;;;;;;;4941589;29;20035;-75
2022/10/17 03:13:19;;;;;;;15.18;7.63;;;;;;;;;;4941764;29;20393;-75
2022/10/17 03:16:05;;;;;;;13.57;7.75;;;;;;;;;;4941462;29;20044;-75
2022/10/17 03:18:51;;;;;;;12.02;7.38;;;;;;;;;;4941283;29;20486;-75
2022/10/17 03:21:37;;;;;;;12.52;7.50;;;;;;;;;;4941908;29;20047;-75
2022/10/17 03:24:23;;;;;;;14.48;7.30;;;;;;;;;;4941474;29;20059;-77
2022/10/17 03:27:09;;;;;;;11.52;6.75;;;;;;;;;;4941399;29;20052;-75
2022/10/17 03:29:55;;;;;;;10.10;6.40;;;;;;;;;;4941489;29;20048;-76
2022/10/17 03:32:40;;;;;;;9.52;6.05;;;;;;;;;;4927973;29;20048;-76
2022/10/17 03:35:26;;;;;;;7.57;5.93;;;;;;;;;;4941378;29;20043;-75
2022/10/17 03:38:12;;;;;;;10.18;6.82;;;;;;;;;;4935846;29;20047;-76
2022/10/17 03:40:57;;;;;;;12.00;7.00;;;;;;;;;;4940900;29;20478;-76
2022/10/17 03:43:43;;;;;;;12.13;7.43;;;;;;;;;;4941258;29;20047;-76
2022/10/17 03:46:29;;;;;;;19.40;8.90;;;;;;;;;;4941118;29;20401;-76
2022/10/17 03:49:18;;;;;;;16.48;7.82;;;;;;;;;;4944566;29;20040;-76
2022/10/17 03:52:04;;;;;;;16.67;8.88;;;;;;;;;;4937776;29;20052;-76
2022/10/17 03:54:50;;;;;;;14.60;8.45;;;;;;;;;;4944391;29;20043;-76
2022/10/17 03:57:36;;;;;;;16.90;8.43;;;;;;;;;;4944637;29;20401;-75
2022/10/17 04:00:23;;;;;;;17.02;9.73;;;;;;;;;;4944075;29;20056;-77
2022/10/17 04:03:14;;;;;;;18.98;9.98;;;;;;;;;;4944335;29;20413;-76
2022/10/17 04:06:01;;;;;;;17.55;9.90;;;;;;;;;;4944267;29;20077;-76
2022/10/17 04:08:49;;;;;;;16.83;10.73;;;;;;;;;;4944048;29;20055;-77
2022/10/17 04:11:40;;;;;;;19.00;9.75;;;;;;;;;;4939073;29;20036;-76
2022/10/17 04:14:26;;;;;;;13.07;8.60;;;;;;;;;;4944211;29;20401;-77
2022/10/17 04:17:11;;;;;;;13.27;8.52;;;;;;;;;;4938335;29;20051;-77
2022/10/17 04:19:58;;;;;;;17.02;7.55;;;;;;;;;;4943886;29;20056;-76
2022/10/17 04:22:43;;;;;;;13.90;7.30;;;;;;;;;;4943865;29;20429;-76
2022/10/17 04:25:29;;;;;;;11.32;7.25;;;;;;;;;;4943881;29;20048;-76
2022/10/17 04:28:15;;;;;;;16.33;7.65;;;;;;;;;;4943748;29;20051;-76
2022/10/17 04:31:06;;;;;;;16.02;7.65;;;;;;;;;;4943830;29;20055;-75
2022/10/17 04:33:56;;;;;;;23.20;12.18;;;;;;;;;;4943799;29;20397;-76
2022/10/17 04:36:41;;;;;;;21.65;9.55;;;;;;;;;;4943619;29;20051;-75
2022/10/17 04:39:27;;;;;;;15.95;8.95;;;;;;;;;;4943630;29;20051;-75
2022/10/17 04:42:12;;;;;;;19.45;9.35;;;;;;;;;;4943599;29;20047;-74
2022/10/17 04:44:59;;;;;;;15.80;9.55;;;;;;;;;;4943705;29;20039;-75
2022/10/17 04:47:45;;;;;;;19.13;10.13;;;;;;;;;;4943343;29;20485;-75
2022/10/17 04:50:31;;;;;;;19.00;10.05;;;;;;;;;;4937690;29;20406;-76
2022/10/17 04:53:44;;;;;;;21.73;12.77;;;;;;;;;;4953659;29;20060;-78
2022/10/17 04:56:30;;;;;;;28.65;11.93;;;;;;;;;;4948223;29;20051;-76
2022/10/17 04:59:15;;;;;;;24.63;10.68;;;;;;;;;;4937280;29;20055;-76
2022/10/17 05:02:02;;;;;;;20.70;11.48;;;;;;;;;;4943553;29;20393;-76
2022/10/17 05:04:49;;;;;;;17.60;10.77;;;;;;;;;;4943127;29;20048;-76
2022/10/17 05:07:39;;;;;;;27.75;16.17;;;;;;;;;;4942934;29;20043;-77
2022/10/17 05:10:38;;;;;;;29.98;18.38;;;;;;;;;;4943007;29;20055;-76
2022/10/17 05:13:23;;;;;;;32.28;19.30;;;;;;;;;;4943008;29;20048;-76
2022/10/17 05:16:09;;;;;;;44.58;25.08;;;;;;;;;;4942644;29;20047;-76
2022/10/17 05:18:56;;;;;;;69.90;35.22;;;;;;;;;;4942437;29;20051;-76
2022/10/17 05:21:44;;;;;;;76.43;38.95;;;;;;;;;;4942711;29;20051;-76
2022/10/17 05:24:30;;;;;;;46.17;24.30;;;;;;;;;;4942618;29;20047;-76
2022/10/17 05:27:15;;;;;;;24.40;13.63;;;;;;;;;;4937211;29;20043;-76
2022/10/17 05:30:00;;;;;;;26.30;13.10;;;;;;;;;;4937315;29;20052;-79
2022/10/17 05:32:51;;;;;;;26.15;14.35;;;;;;;;;;4942670;29;20047;-76
2022/10/17 05:35:36;;;;;;;27.38;13.15;;;;;;;;;;4942416;29;20051;-75
2022/10/17 05:38:22;;;;;;;29.98;14.90;;;;;;;;;;4937370;29;20055;-75
2022/10/17 05:41:09;;;;;;;31.02;14.50;;;;;;;;;;4942323;29;20044;-76
2022/10/17 05:43:54;;;;;;;31.60;16.10;;;;;;;;;;4941383;29;20052;-75
2022/10/17 05:46:50;;;;;;;33.17;16.08;;;;;;;;;;4940406;29;20047;-76
2022/10/17 05:49:35;;;;;;;32.47;18.88;;;;;;;;;;4934907;29;20043;-76
2022/10/17 05:52:21;;;;;;;25.52;17.70;;;;;;;;;;4934936;29;20047;-77
2022/10/17 05:55:23;;;;;;;29.25;18.23;;;;;;;;;;4941634;29;20051;-76
2022/10/17 05:58:10;;;;;;;31.98;17.67;;;;;;;;;;4942377;29;20044;-76
2022/10/17 06:01:04;;;;;;;31.88;15.82;;;;;;;;;;4941885;29;20047;-77
2022/10/17 06:03:49;;;;;;;32.78;16.00;;;;;;;;;;4936713;29;20043;-76
2022/10/17 06:06:36;;;;;;;27.67;15.65;;;;;;;;;;4936761;29;20047;-77
2022/10/17 06:09:23;;;;;;;24.65;16.13;;;;;;;;;;4942045;29;20039;-76
2022/10/17 06:12:11;;;;;;;29.98;14.90;;;;;;;;;;4941883;29;20044;-76
2022/10/17 06:14:56;;;;;;;27.33;15.93;;;;;;;;;;4936262;29;20043;-77
2022/10/17 06:17:42;;;;;;;33.42;18.60;;;;;;;;;;4943210;29;20406;-75
2022/10/17 06:20:28;;;;;;;37.83;17.67;;;;;;;;;;4943139;29;20048;-77
2022/10/17 06:23:13;;;;;;;30.92;16.88;;;;;;;;;;4942442;29;20064;-76
2022/10/17 06:26:15;;;;;;;39.60;22.27;;;;;;;;;;4942412;29;20048;-76
2022/10/17 06:29:00;;;;;;;35.83;20.70;;;;;;;;;;4941574;29;20055;-75
2022/10/17 06:31:50;;;;;;;42.45;22.08;;;;;;;;;;4941892;29;20039;-75
2022/10/17 06:34:36;;;;;;;49.05;23.05;;;;;;;;;;4941462;29;20405;-74
2022/10/17 06:37:22;;;;;;;39.35;21.50;;;;;;;;;;4941549;29;20044;-75
2022/10/17 06:40:09;;;;;;;35.17;21.08;;;;;;;;;;4941653;29;20486;-74
2022/10/17 06:42:56;;;;;;;29.73;17.10;;;;;;;;;;4941546;29;20051;-75
2022/10/17 06:45:46;;;;;;;27.42;15.05;;;;;;;;;;4941511;29;20405;-75
2022/10/17 06:48:49;;;;;;;27.27;15.07;;;;;;;;;;4941451;29;20081;-74
2022/10/17 06:52:01;;;;;;;30.17;16.05;;;;;;;;;;4923263;29;20039;-74
2022/10/17 06:55:01;;;;;;;40.30;19.63;;;;;;;;;;4941331;29;20040;-74
2022/10/17 06:57:59;;;;;;;31.70;19.85;;;;;;;;;;4941591;29;20043;-74
2022/10/17 07:01:08;;;;;;;26.65;18.77;;;;;;;;;;4942233;29;20051;-74
2022/10/17 07:03:53;;;;;;;30.63;18.27;;;;;;;;;;4941344;29;20055;-74
2022/10/17 07:06:39;;;;;;;29.70;17.92;;;;;;;;;;4941398;29;20048;-75
2022/10/17 07:09:31;;;;;;;24.90;16.35;;;;;;;;;;4941420;29;20051;-74
2022/10/17 07:12:17;;;;;;;29.88;15.07;;;;;;;;;;4941435;29;20039;-74
2022/10/17 07:15:04;;;;;;;25.35;14.68;;;;;;;;;;4936191;29;20485;-74
2022/10/17 07:17:49;;;;;;;25.30;14.80;;;;;;;;;;4941407;29;20039;-77
2022/10/17 07:20:36;;;;;;;23.52;14.10;;;;;;;;;;4935681;29;20044;-76
2022/10/17 07:23:22;;;;;;;27.63;14.55;;;;;;;;;;4943651;29;20055;-73
2022/10/17 07:26:11;;;;;;;25.17;14.40;;;;;;;;;;4944916;29;20051;-74
2022/10/17 07:28:57;;;;;;;22.25;13.98;;;;;;;;;;4945061;29;20056;-76
2022/10/17 07:31:52;;;;;;;21.65;14.18;;;;;;;;;;4942583;29;20044;-76
2022/10/17 07:34:37;;;;;;;27.52;15.70;;;;;;;;;;4938532;29;20044;-76
2022/10/17 07:37:24;;;;;;;24.52;16.20;;;;;;;;;;4942928;29;20486;-74
2022/10/17 07:40:12;;;;;;;25.55;16.65;;;;;;;;;;4943520;29;20035;-73
2022/10/17 07:42:59;;;;;;;23.35;15.10;;;;;;;;;;4944108;29;20406;-75
2022/10/17 07:45:45;;;;;;;28.15;13.75;;;;;;;;;;4944034;29;20047;-73
2022/10/17 07:48:30;;;;;;;25.23;16.80;;;;;;;;;;4944570;29;20044;-73
2022/10/17 07:51:17;;;;;;;23.48;13.82;;;;;;;;;;4939718;29;20051;-75
2022/10/17 07:54:04;;;;;;;27.23;14.52;;;;;;;;;;4939114;29;20055;-73
2022/10/17 07:56:50;;;;;;;22.58;13.55;;;;;;;;;;4944508;29;20044;-75
2022/10/17 07:59:37;;;;;;;20.10;13.30;;;;;;;;;;4938853;29;20051;-74
2022/10/17 08:02:25;;;;;;;20.08;12.98;;;;;;;;;;4939265;29;20478;-75
2022/10/17 08:05:10;;;;;;;17.05;11.52;;;;;;;;;;4938963;29;20047;-75
2022/10/17 08:07:56;;;;;;;16.08;10.10;;;;;;;;;;4938736;29;20486;-73
2022/10/17 08:10:41;;;;;;;23.95;14.10;;;;;;;;;;4938593;29;20039;-73
2022/10/17 08:13:26;;;;;;;70.65;40.92;;;;;;;;;;4938629;29;20047;-73
2022/10/17 08:16:12;;;;;;;42.58;22.63;;;;;;;;;;4938645;29;20052;-75
2022/10/17 08:18:58;;;;;;;18.27;9.45;;;;;;;;;;4938645;29;20035;-73
2022/10/17 08:21:45;;;;;;;15.15;9.70;;;;;;;;;;4938317;29;20044;-75
2022/10/17 08:24:31;;;;;;;16.50;10.43;;;;;;;;;;4938983;29;20504;-75
2022/10/17 08:27:22;;;;;;;20.48;12.63;;;;;;;;;;4938310;29;20040;-75
2022/10/17 08:30:09;;;;;;;28.70;14.82;;;;;;;;;;4938718;29;20040;-74
2022/10/17 08:32:55;;;;;;;25.27;14.80;;;;;;;;;;4938172;29;20051;-74
2022/10/17 08:35:40;;;;;;;32.00;15.43;;;;;;;;;;4944804;29;20040;-74
2022/10/17 08:38:28;;;;;;;23.73;14.82;;;;;;;;;;4938337;29;20059;-74
2022/10/17 08:41:38;;;;;;;25.85;14.32;;;;;;;;;;4937939;29;20478;-73
2022/10/17 08:44:28;;;;;;;21.17;12.60;;;;;;;;;;4938520;29;20051;-74
2022/10/17 08:47:23;;;;;;;21.75;11.38;;;;;;;;;;4938111;29;20051;-75
2022/10/17 08:50:26;;;;;;;22.25;11.75;;;;;;;;;;4942122;29;20059;-77
2022/10/17 08:53:16;;;;;;;21.95;11.52;;;;;;;;;;4937839;29;20043;-76
2022/10/17 08:56:16;;;;;;;17.80;10.05;;;;;;;;;;4937865;29;20051;-73
2022/10/17 08:59:04;;;;;;;19.88;9.60;;;;;;;;;;4937772;29;20040;-73
2022/10/17 09:02:23;;;;;;;13.90;8.77;;;;;;;;;;4937385;29;20485;-74
2022/10/17 09:05:31;;;;;;;14.68;9.13;;;;;;;;;;4942954;29;20047;-73
2022/10/17 09:08:59;;;;;;;15.43;8.02;;;;;;;;;;4937680;29;20043;-75
2022/10/17 09:11:53;;;;;;;20.88;8.45;;;;;;;;;;4936012;29;20043;-74
2022/10/17 09:15:00;;;;;;;14.48;8.60;;;;;;;;;;4931997;29;20043;-77
2022/10/17 09:17:53;;;;;;;13.63;7.95;;;;;;;;;;4937697;29;20067;-75
2022/10/17 09:20:44;;;;;;;19.90;8.07;;;;;;;;;;4937441;29;20048;-75
2022/10/17 09:23:55;;;;;;;15.27;7.78;;;;;;;;;;4937300;29;20052;-75
2022/10/17 09:26:41;;;;;;;7.82;4.63;;;;;;;;;;4937232;29;20041;-74
2022/10/17 09:29:26;;;;;;;5.20;3.50;;;;;;;;;;4923065;29;20055;-75
2022/10/17 09:32:17;;;;;;;7.28;3.75;;;;;;;;;;4937081;29;20044;-75
2022/10/17 09:35:03;;;;;;;6.05;3.90;;;;;;;;;;4937261;29;20043;-76
2022/10/17 09:37:49;;;;;;;8.90;5.05;;;;;;;;;;4937064;29;20043;-76
2022/10/17 09:40:35;;;;;;;7.60;4.15;;;;;;;;;;4937031;29;20043;-74
2022/10/17 09:43:23;;;;;;;4.93;3.35;;;;;;;;;;4937155;29;20056;-75
2022/10/17 09:46:31;;;;;;;7.28;3.78;;;;;;;;;;4936586;29;20040;-75
2022/10/17 09:49:21;;;;;;;6.53;3.63;;;;;;;;;;4937220;29;20040;-74
2022/10/17 09:52:23;;;;;;;7.47;3.83;;;;;;;;;;4937097;29;20040;-76
2022/10/17 09:55:39;;;;;;;12.05;4.20;;;;;;;;;;4936878;29;20362;-76
2022/10/17 09:58:43;;;;;;;7.10;3.45;;;;;;;;;;4936997;29;20047;-75
2022/10/17 10:01:30;;;;;;;6.40;4.07;;;;;;;;;;4938709;29;20482;-73
2022/10/17 10:04:16;;;;;;;10.95;3.72;;;;;;;;;;4936490;29;20047;-74
2022/10/17 10:07:11;;;;;;;5.32;3.35;;;;;;;;;;4936915;29;20051;-75
2022/10/17 10:09:57;;;;;;;21.75;3.80;;;;;;;;;;4936627;29;20047;-74
2022/10/17 10:13:14;;;;;;;9.20;3.72;;;;;;;;;;4937166;29;20043;-75
2022/10/17 10:16:31;;;;;;;6.53;4.65;;;;;;;;;;4936869;29;20051;-72
2022/10/17 10:19:28;;;;;;;8.70;3.70;;;;;;;;;;4942974;29;20493;-73
2022/10/17 10:22:16;;;;;;;5.35;3.17;;;;;;;;;;4936068;29;20044;-75
2022/10/17 10:25:14;;;;;;;5.88;3.63;;;;;;;;;;4936549;29;20043;-73
2022/10/17 10:28:00;;;;;;;8.90;3.13;;;;;;;;;;4936457;29;20043;-77
2022/10/17 10:30:48;;;;;;;5.30;3.40;;;;;;;;;;4936551;29;20061;-75
2022/10/17 10:33:39;;;;;;;6.05;3.90;;;;;;;;;;4936233;29;20086;-74
2022/10/17 10:36:40;;;;;;;6.68;3.78;;;;;;;;;;4936220;29;20051;-73
2022/10/17 10:39:34;;;;;;;8.48;3.15;;;;;;;;;;4941761;29;20048;-75
2022/10/17 10:42:24;;;;;;;9.52;3.20;;;;;;;;;;4935983;29;20044;-74
2022/10/17 10:45:39;;;;;;;3.47;2.38;;;;;;;;;;4942854;29;20394;-73
2022/10/17 10:48:48;;;;;;;5.55;3.42;;;;;;;;;;4936533;29;20398;-75
2022/10/17 10:51:43;;;;;;;8.63;3.70;;;;;;;;;;4935789;29;20052;-74
2022/10/17 10:54:35;;;;;;;14.15;4.65;;;;;;;;;;4935974;29;20043;-75
2022/10/17 10:57:27;;;;;;;10.63;4.18;;;;;;;;;;4937067;29;20044;-74
2022/10/17 11:00:21;;;;;;;5.68;3.88;;;;;;;;;;4946356;29;20051;-76
2022/10/17 11:03:22;;;;;;;7.72;4.45;;;;;;;;;;4946555;29;20057;-74
2022/10/17 11:06:32;;;;;;;6.78;4.35;;;;;;;;;;4939831;29;20047;-73
2022/10/17 11:09:23;;;;;;;10.95;6.05;;;;;;;;;;4939975;29;20043;-73
2022/10/17 11:12:17;;;;;;;6.53;3.50;;;;;;;;;;4940019;29;20044;-74
2022/10/17 11:15:17;;;;;;;4.45;3.30;;;;;;;;;;4939678;29;20052;-74
2022/10/17 11:18:25;;;;;;;6.18;3.45;;;;;;;;;;4939840;29;20047;-73
2022/10/17 11:21:33;;;;;;;6.18;3.65;;;;;;;;;;4939642;29;20036;-76
2022/10/17 11:24:44;;;;;;;11.07;4.45;;;;;;;;;;4939900;29;20047;-73
2022/10/17 11:27:30;;;;;;;5.40;3.13;;;;;;;;;;4939867;29;20039;-75
2022/10/17 11:30:16;;;;;;;6.15;3.72;;;;;;;;;;4939697;29;20051;-75
2022/10/17 11:33:03;;;;;;;9.77;3.88;;;;;;;;;;4939621;29;20040;-74
2022/10/17 11:35:52;;;;;;;7.78;3.40;;;;;;;;;;4945650;29;20047;-76
2022/10/17 11:39:08;;;;;;;6.07;3.55;;;;;;;;;;4939300;29;20039;-75
2022/10/17 11:42:09;;;;;;;8.02;3.58;;;;;;;;;;4939081;29;20043;-75
2022/10/17 11:45:01;;;;;;;9.23;3.42;;;;;;;;;;4939058;29;20055;-74
2022/10/17 11:48:03;;;;;;;5.45;3.45;;;;;;;;;;4939501;29;20048;-74
2022/10/17 11:51:02;;;;;;;6.65;3.47;;;;;;;;;;4938658;29;20056;-75
2022/10/17 11:53:53;;;;;;;9.07;3.15;;;;;;;;;;4939450;29;20048;-74
2022/10/17 11:57:06;;;;;;;5.53;2.78;;;;;;;;;;4939148;29;20493;-75
2022/10/17 11:59:54;;;;;;;9.00;3.33;;;;;;;;;;4945352;29;20039;-74
2022/10/17 12:03:18;;;;;;;10.82;3.28;;;;;;;;;;4945003;29;20043;-73
2022/10/17 12:06:37;;;;;;;7.40;3.45;;;;;;;;;;4939088;29;20039;-74
2022/10/17 12:09:45;;;;;;;11.48;3.83;;;;;;;;;;4938860;29;20051;-73
2022/10/17 12:12:33;;;;;;;5.97;3.20;;;;;;;;;;4939036;29;20052;-74
2022/10/17 12:15:18;;;;;;;7.93;3.10;;;;;;;;;;4938821;29;20493;-73
2022/10/17 12:18:04;;;;;;;7.22;3.17;;;;;;;;;;4938409;29;20043;-74
2022/10/17 12:20:59;;;;;;;9.88;3.78;;;;;;;;;;4938576;29;20485;-74
2022/10/17 12:23:50;;;;;;;;;;;;;;;;;;4939257;29;20051;-74
2022/10/17 12:26:36;;;;;;;6.20;3.35;;;;;;;;;;4938336;29;19919;-74
2022/10/17 12:29:27;;;;;;;6.43;2.97;;;;;;;;;;4938243;29;20040;-74
2022/10/17 12:32:14;;;;;;;7.55;3.35;;;;;;;;;;4938344;29;20366;-74
2022/10/17 12:34:59;;;;;;;9.75;4.65;;;;;;;;;;4938698;29;20047;-74
2022/10/17 12:37:47;;;;;;;12.88;4.45;;;;;;;;;;4938334;29;20397;-73
2022/10/17 12:40:35;;;;;;;12.30;4.60;;;;;;;;;;4943647;29;20047;-74
2022/10/17 12:43:26;;;;;;;12.55;4.32;;;;;;;;;;4937825;29;20052;-74
2022/10/17 12:46:32;;;;;;;8.05;4.18;;;;;;;;;;4938025;29;20047;-73
2022/10/17 12:49:21;;;;;;;9.55;3.90;;;;;;;;;;4938173;29;20052;-76
2022/10/17 12:52:10;;;;;;;5.50;3.47;;;;;;;;;;4937375;29;20051;-74
2022/10/17 12:55:11;;;;;;;9.02;4.38;;;;;;;;;;4944305;29;20066;-74
2022/10/17 12:58:03;;;;;;;6.68;3.50;;;;;;;;;;4937462;29;20044;-73
2022/10/17 13:00:55;;;;;;;9.73;3.58;;;;;;;;;;4937118;29;20047;-74
2022/10/17 13:03:44;;;;;;;12.35;4.60;;;;;;;;;;4937387;29;20044;-75
2022/10/17 13:06:36;;;;;;;12.60;4.80;;;;;;;;;;4937355;29;20047;-75
2022/10/17 13:09:29;;;;;;;6.97;4.13;;;;;;;;;;4937292;29;20044;-75
2022/10/17 13:12:19;;;;;;;5.72;3.10;;;;;;;;;;4942533;29;20047;-75
2022/10/17 13:15:06;;;;;;;7.95;4.38;;;;;;;;;;4937788;29;20047;-76
2022/10/17 13:17:59;;;;;;;8.95;4.80;;;;;;;;;;4944555;29;20048;-75
2022/10/17 13:20:54;;;;;;;9.02;4.55;;;;;;;;;;4932094;29;20398;-77
2022/10/17 13:23:39;;;;;;;10.82;4.72;;;;;;;;;;4937025;29;20068;-77
2022/10/17 13:26:27;;;;;;;9.73;4.97;;;;;;;;;;4937047;29;20048;-74
2022/10/17 13:29:14;;;;;;;13.32;5.13;;;;;;;;;;4937766;29;20048;-75
2022/10/17 13:32:02;;;;;;;9.27;4.20;;;;;;;;;;4937073;29;20040;-75
2022/10/17 13:35:05;;;;;;;12.98;3.55;;;;;;;;;;4936902;29;20048;-74
2022/10/17 13:37:52;;;;;;;7.47;3.55;;;;;;;;;;4937007;29;20035;-75
2022/10/17 13:40:43;;;;;;;9.55;3.55;;;;;;;;;;4936906;29;20389;-76
2022/10/17 13:43:29;;;;;;;12.43;3.13;;;;;;;;;;4936909;29;20052;-77
2022/10/17 13:46:25;;;;;;;8.00;3.85;;;;;;;;;;4943414;29;20055;-76
2022/10/17 13:49:19;;;;;;;15.65;4.55;;;;;;;;;;4936980;29;20491;-76
2022/10/17 13:52:13;;;;;;;7.35;3.17;;;;;;;;;;4936361;29;20056;-74
2022/10/17 13:55:15;;;;;;;13.43;3.45;;;;;;;;;;4943076;29;20043;-73
2022/10/17 13:58:17;;;;;;;9.00;3.30;;;;;;;;;;4936652;29;20492;-74
2022/10/17 14:01:02;;;;;;;12.57;3.88;;;;;;;;;;4936770;29;20040;-77
2022/10/17 14:03:48;;;;;;;9.02;3.55;;;;;;;;;;4944598;29;20043;-79
2022/10/17 14:06:33;;;;;;;5.90;3.22;;;;;;;;;;4936588;29;20047;-77
2022/10/17 14:09:28;;;;;;;10.82;2.78;;;;;;;;;;4943040;29;20047;-77
2022/10/17 14:12:15;;;;;;;7.80;3.72;;;;;;;;;;4943123;29;20047;-73
2022/10/17 14:15:02;;;;;;;5.20;3.78;;;;;;;;;;4936306;29;20048;-74
2022/10/17 14:18:01;;;;;;;9.52;3.97;;;;;;;;;;4942805;29;20385;-77
2022/10/17 14:20:49;;;;;;;21.38;8.35;;;;;;;;;;4936185;29;20039;-73
2022/10/17 14:23:43;;;;;;;50.35;23.15;;;;;;;;;;4936324;29;20055;-73
2022/10/17 14:26:28;;;;;;;26.95;14.15;;;;;;;;;;4936519;29;20048;-73
2022/10/17 14:29:24;;;;;;;18.15;9.35;;;;;;;;;;4936405;29;20051;-73
2022/10/17 14:32:13;;;;;;;8.32;4.60;;;;;;;;;;4935861;29;20043;-75
2022/10/17 14:35:01;;;;;;;25.00;8.43;;;;;;;;;;4936438;29;20040;-75
2022/10/17 14:37:50;;;;;;;15.52;6.07;;;;;;;;;;4935960;29;20070;-73
2022/10/17 14:40:36;;;;;;;14.55;5.00;;;;;;;;;;4936229;29;20039;-74
2022/10/17 14:43:24;;;;;;;14.90;8.10;;;;;;;;;;4935959;29;20052;-73
2022/10/17 14:46:16;;;;;;;13.93;3.72;;;;;;;;;;4942387;29;20051;-74
2022/10/17 14:49:06;;;;;;;6.65;3.72;;;;;;;;;;4941620;29;20509;-74
2022/10/17 14:52:22;;;;;;;14.77;4.38;;;;;;;;;;4935663;29;20382;-73
2022/10/17 14:55:25;;;;;;;13.18;5.80;;;;;;;;;;4936129;29;20036;-74
2022/10/17 14:58:16;;;;;;;16.48;7.38;;;;;;;;;;4936001;29;20039;-73
2022/10/17 15:01:02;;;;;;;10.52;5.63;;;;;;;;;;4936207;29;20059;-74
2022/10/17 15:03:47;;;;;;;15.70;6.28;;;;;;;;;;4936081;29;20055;-73
2022/10/17 15:06:33;;;;;;;11.73;6.28;;;;;;;;;;4935853;29;20055;-72
2022/10/17 15:09:18;;;;;;;17.02;7.03;;;;;;;;;;4942481;29;20044;-73
2022/10/17 15:12:06;;;;;;;14.38;8.77;;;;;;;;;;4941871;29;20043;-76
2022/10/17 15:14:52;;;;;;;14.98;6.78;;;;;;;;;;4942419;29;20048;-74
2022/10/17 15:17:37;;;;;;;13.27;6.65;;;;;;;;;;4935433;29;20333;-74
2022/10/17 15:20:29;;;;;;;14.15;5.93;;;;;;;;;;4935829;29;20048;-74
2022/10/17 15:23:14;;;;;;;14.40;5.95;;;;;;;;;;4935625;29;20043;-73
2022/10/17 15:25:59;;;;;;;14.90;7.45;;;;;;;;;;4935805;29;20044;-74
2022/10/17 15:28:46;;;;;;;35.72;15.25;;;;;;;;;;4935829;29;20044;-74
2022/10/17 15:31:32;;;;;;;108.22;43.95;;;;;;;;;;4935956;29;20490;-73
2022/10/17 15:34:17;;;;;;;153.88;62.35;;;;;;;;;;4935504;29;20044;-75
2022/10/17 15:37:04;;;;;;;101.60;46.78;;;;;;;;;;4935629;29;20486;-74
2022/10/17 15:39:53;;;;;;;49.05;31.17;;;;;;;;;;4935691;29;20047;-74
2022/10/17 15:42:38;;;;;;;30.73;17.95;;;;;;;;;;4935507;29;20039;-74
2022/10/17 15:45:24;;;;;;;30.35;17.65;;;;;;;;;;4943512;29;20063;-73
2022/10/17 15:48:26;;;;;;;31.80;16.10;;;;;;;;;;4937347;29;20043;-73
2022/10/17 15:51:11;;;;;;;17.92;11.38;;;;;;;;;;4936614;29;20052;-73
2022/10/17 15:54:00;;;;;;;18.77;9.20;;;;;;;;;;4937883;29;20193;-73
2022/10/17 15:56:52;;;;;;;21.27;11.30;;;;;;;;;;4937967;29;20051;-74
2022/10/17 15:59:37;;;;;;;26.65;12.27;;;;;;;;;;4937550;29;20048;-74
2022/10/17 16:02:23;;;;;;;18.30;10.43;;;;;;;;;;4938379;29;20047;-73
2022/10/17 16:05:14;;;;;;;1209.45;744.00;;;;;;;;;;4939110;29;20410;-74
2022/10/17 16:08:00;;;;;;;767.75;492.38;;;;;;;;;;4939101;29;20058;-73
2022/10/17 16:10:46;;;;;;;968.00;642.75;;;;;;;;;;4938997;29;20382;-75
2022/10/17 16:13:32;;;;;;;622.75;369.60;;;;;;;;;;4938482;29;20051;-76
2022/10/17 16:16:17;;;;;;;273.75;128.00;;;;;;;;;;4944528;29;20371;-76
2022/10/17 16:19:03;;;;;;;467.63;240.55;;;;;;;;;;4937746;29;20505;-75
2022/10/17 16:21:48;;;;;;;570.63;315.67;;;;;;;;;;4938573;29;20044;-75
2022/10/17 16:24:34;;;;;;;718.58;433.75;;;;;;;;;;4938817;29;20047;-75
2022/10/17 16:27:19;;;;;;;521.97;277.55;;;;;;;;;;4938322;29;20048;-75
2022/10/17 16:30:06;;;;;;;155.48;73.32;;;;;;;;;;4944904;29;20047;-76
2022/10/17 16:32:52;;;;;;;88.82;47.88;;;;;;;;;;4938327;29;20039;-77
2022/10/17 16:35:38;;;;;;;71.47;37.08;;;;;;;;;;4938575;29;20047;-77
2022/10/17 16:38:24;;;;;;;82.53;43.78;;;;;;;;;;4938188;29;20497;-77
2022/10/17 16:41:25;;;;;;;86.40;43.25;;;;;;;;;;4944617;29;20036;-77
2022/10/17 16:44:14;;;;;;;91.47;46.25;;;;;;;;;;4937793;29;20047;-76
2022/10/17 16:46:59;;;;;;;79.55;43.75;;;;;;;;;;4937936;29;20486;-77
2022/10/17 16:49:45;;;;;;;77.20;42.22;;;;;;;;;;4943166;29;20036;-77